Time;durP1;ratioP1;P1;durP2;ratioP2;P2;SDS_P1;SDS_P2;PMS_P1;PMS_P2;Temp;Humidity;BMP_temperature;BMP_pressure;BME280_temperature;BME280_humidity;BME280_pressure;Samples;Min_cycle;Max_cycle;Signal;HPM_P1;HPM_P2
2023/04/27 00:01:06;;;;;;;3.60;1.60;;;;;;;;;;5047692;28;20240;-52
2023/04/27 00:03:33;;;;;;;4.33;2.23;;;;;;;;;;5045393;28;20320;-52
2023/04/27 00:05:59;;;;;;;4.13;2.07;;;;;;;;;;5044816;28;20281;-51
2023/04/27 00:08:26;;;;;;;2.73;1.70;;;;;;;;;;5044883;28;20228;-52
2023/04/27 00:10:52;;;;;;;3.43;2.10;;;;;;;;;;5046417;28;20800;-50
2023/04/27 00:13:19;;;;;;;2.93;1.73;;;;;;;;;;5045118;28;20239;-51
2023/04/27 00:15:47;;;;;;;6.37;2.80;;;;;;;;;;5044196;28;20228;-51
2023/04/27 00:18:14;;;;;;;2.63;1.80;;;;;;;;;;5045847;28;20589;-51
2023/04/27 00:20:40;;;;;;;6.87;2.07;;;;;;;;;;5044347;28;20238;-51
2023/04/27 00:23:07;;;;;;;4.30;2.37;;;;;;;;;;5045913;28;20736;-52
2023/04/27 00:25:33;;;;;;;2.20;1.90;;;;;;;;;;5043669;28;20281;-51
2023/04/27 00:28:00;;;;;;;2.60;1.93;;;;;;;;;;5043626;28;20729;-51
2023/04/27 00:30:26;;;;;;;3.77;2.40;;;;;;;;;;5046807;28;20236;-51
2023/04/27 00:32:55;;;;;;;2.37;1.80;;;;;;;;;;5046442;28;20323;-53
2023/04/27 00:35:21;;;;;;;5.57;1.83;;;;;;;;;;5041084;28;20239;-51
2023/04/27 00:37:48;;;;;;;4.47;1.87;;;;;;;;;;5042106;28;20261;-51
2023/04/27 00:40:14;;;;;;;3.13;2.17;;;;;;;;;;5045227;28;20788;-53
2023/04/27 00:42:41;;;;;;;4.03;2.40;;;;;;;;;;5045055;28;20393;-52
2023/04/27 00:45:09;;;;;;;3.80;1.93;;;;;;;;;;5045464;28;20240;-51
2023/04/27 00:47:36;;;;;;;1.90;1.70;;;;;;;;;;5044544;28;20236;-51
2023/04/27 00:50:07;;;;;;;4.43;1.90;;;;;;;;;;5046249;28;20243;-51
2023/04/27 00:52:34;;;;;;;3.30;2.07;;;;;;;;;;5044404;28;20317;-52
2023/04/27 00:55:02;;;;;;;2.33;1.57;;;;;;;;;;5045878;28;20240;-50
2023/04/27 00:57:29;;;;;;;4.70;2.00;;;;;;;;;;5042801;28;20681;-52
2023/04/27 00:59:56;;;;;;;4.10;2.10;;;;;;;;;;5045086;28;20269;-52
2023/04/27 01:02:23;;;;;;;3.70;2.30;;;;;;;;;;5044594;28;20706;-51
2023/04/27 01:04:50;;;;;;;3.77;1.90;;;;;;;;;;5045004;28;20240;-52
2023/04/27 01:07:19;;;;;;;3.00;2.13;;;;;;;;;;5044402;28;20238;-50
2023/04/27 01:09:45;;;;;;;3.10;2.00;;;;;;;;;;5042424;28;20261;-51
2023/04/27 01:12:12;;;;;;;5.37;2.10;;;;;;;;;;5044891;28;20438;-52
2023/04/27 01:14:38;;;;;;;2.47;1.97;;;;;;;;;;5044806;28;20743;-51
2023/04/27 01:17:05;;;;;;;3.50;1.80;;;;;;;;;;5044920;28;20657;-52
2023/04/27 01:19:32;;;;;;;4.33;1.77;;;;;;;;;;5044408;28;20915;-51
2023/04/27 01:21:58;;;;;;;5.60;2.50;;;;;;;;;;5041137;28;20304;-51
2023/04/27 01:24:26;;;;;;;2.60;2.10;;;;;;;;;;5044913;28;20236;-50
2023/04/27 01:26:53;;;;;;;2.27;1.80;;;;;;;;;;5040793;28;20232;-51
2023/04/27 01:29:21;;;;;;;2.07;1.97;;;;;;;;;;5044901;28;20237;-52
2023/04/27 01:31:47;;;;;;;3.80;2.03;;;;;;;;;;5037746;28;20267;-51
2023/04/27 01:34:14;;;;;;;5.37;2.27;;;;;;;;;;5041665;28;20322;-52
2023/04/27 01:36:40;;;;;;;5.17;2.10;;;;;;;;;;5042486;28;20333;-52
2023/04/27 01:39:08;;;;;;;5.27;1.80;;;;;;;;;;5044788;28;20693;-52
2023/04/27 01:41:38;;;;;;;3.57;2.27;;;;;;;;;;5043405;28;20242;-52
2023/04/27 01:44:05;;;;;;;2.37;1.50;;;;;;;;;;5044389;28;20238;-53
2023/04/27 01:46:32;;;;;;;2.87;2.17;;;;;;;;;;5043548;28;20607;-52
2023/04/27 01:48:58;;;;;;;3.20;2.07;;;;;;;;;;5041244;28;20319;-51
2023/04/27 01:51:25;;;;;;;2.30;1.80;;;;;;;;;;5041976;28;20289;-53
2023/04/27 01:53:51;;;;;;;4.83;2.07;;;;;;;;;;5041167;28;20981;-52
2023/04/27 01:56:18;;;;;;;1.80;1.70;;;;;;;;;;5046390;28;20323;-52
2023/04/27 01:58:46;;;;;;;3.17;2.10;;;;;;;;;;5048436;28;20232;-52
2023/04/27 02:01:12;;;;;;;2.67;1.70;;;;;;;;;;5050130;28;20235;-53
2023/04/27 02:03:39;;;;;;;3.77;2.10;;;;;;;;;;5052520;28;21224;-51
2023/04/27 02:06:05;;;;;;;3.33;1.97;;;;;;;;;;5061397;28;20232;-50
2023/04/27 02:08:32;;;;;;;4.47;2.10;;;;;;;;;;5046451;28;20274;-51
2023/04/27 02:10:59;;;;;;;3.40;2.30;;;;;;;;;;5044036;28;20319;-51
2023/04/27 02:13:25;;;;;;;6.17;2.30;;;;;;;;;;5045374;28;20315;-52
2023/04/27 02:15:54;;;;;;;7.20;2.20;;;;;;;;;;5042593;28;20247;-52
2023/04/27 02:18:21;;;;;;;3.93;1.73;;;;;;;;;;5042792;28;20318;-51
2023/04/27 02:20:47;;;;;;;4.40;2.00;;;;;;;;;;5042739;28;20244;-51
2023/04/27 02:23:14;;;;;;;6.93;2.20;;;;;;;;;;5043335;28;20628;-51
2023/04/27 02:25:45;;;;;;;4.13;2.07;;;;;;;;;;5041392;28;20324;-53
2023/04/27 02:28:12;;;;;;;3.80;2.33;;;;;;;;;;5040226;28;20228;-51
2023/04/27 02:30:38;;;;;;;3.77;1.80;;;;;;;;;;5041129;28;20246;-51
2023/04/27 02:33:07;;;;;;;2.40;2.20;;;;;;;;;;5043468;28;20234;-51
2023/04/27 02:35:33;;;;;;;3.13;2.10;;;;;;;;;;5043679;28;20223;-51
2023/04/27 02:38:00;;;;;;;3.33;2.33;;;;;;;;;;5043504;28;20246;-51
2023/04/27 02:40:27;;;;;;;5.67;2.53;;;;;;;;;;5042543;28;20326;-51
2023/04/27 02:42:53;;;;;;;4.60;2.30;;;;;;;;;;5042477;28;20235;-52
2023/04/27 02:45:20;;;;;;;4.27;2.57;;;;;;;;;;5041379;28;20282;-52
2023/04/27 02:47:47;;;;;;;4.80;2.10;;;;;;;;;;5041462;28;20255;-51
2023/04/27 02:50:15;;;;;;;2.40;1.90;;;;;;;;;;5043914;28;20231;-52
2023/04/27 02:52:42;;;;;;;7.00;2.10;;;;;;;;;;5044502;28;20791;-50
2023/04/27 02:55:09;;;;;;;2.90;1.73;;;;;;;;;;5044139;28;20642;-53
2023/04/27 02:57:35;;;;;;;3.70;1.87;;;;;;;;;;5040485;28;20239;-51
2023/04/27 03:00:05;;;;;;;6.37;2.60;;;;;;;;;;5043192;28;20263;-51
2023/04/27 03:02:32;;;;;;;18.13;2.20;;;;;;;;;;5044321;28;20715;-53
2023/04/27 03:04:59;;;;;;;4.00;2.13;;;;;;;;;;5042015;28;20278;-53
2023/04/27 03:07:27;;;;;;;6.93;2.23;;;;;;;;;;5041140;28;20243;-50
2023/04/27 03:09:53;;;;;;;2.73;2.00;;;;;;;;;;5043316;28;20223;-51
2023/04/27 03:12:20;;;;;;;3.20;1.83;;;;;;;;;;5042788;28;20702;-50
2023/04/27 03:14:46;;;;;;;2.20;1.80;;;;;;;;;;5043296;28;20236;-51
2023/04/27 03:17:13;;;;;;;5.30;2.00;;;;;;;;;;5040103;28;20315;-52
2023/04/27 03:19:40;;;;;;;3.83;1.83;;;;;;;;;;5042972;28;20240;-51
2023/04/27 03:22:06;;;;;;;4.40;2.37;;;;;;;;;;5043450;28;20275;-51
2023/04/27 03:24:34;;;;;;;4.43;2.43;;;;;;;;;;5047009;28;20885;-51
2023/04/27 03:27:01;;;;;;;4.90;2.20;;;;;;;;;;5045616;28;20232;-51
2023/04/27 03:29:27;;;;;;;4.37;2.13;;;;;;;;;;5046326;28;20259;-51
2023/04/27 03:31:54;;;;;;;2.07;1.70;;;;;;;;;;5045700;28;20322;-50
2023/04/27 03:34:22;;;;;;;3.03;2.03;;;;;;;;;;5046628;28;20746;-52
2023/04/27 03:36:48;;;;;;;4.10;2.00;;;;;;;;;;5045417;28;20236;-51
2023/04/27 03:39:15;;;;;;;6.60;2.37;;;;;;;;;;5044292;28;20235;-51
2023/04/27 03:41:43;;;;;;;3.27;1.87;;;;;;;;;;5045742;28;20301;-51
2023/04/27 03:44:10;;;;;;;1.97;1.87;;;;;;;;;;5045625;28;20238;-51
2023/04/27 03:46:36;;;;;;;5.20;2.07;;;;;;;;;;5045214;28;20730;-52
2023/04/27 03:49:03;;;;;;;4.93;2.27;;;;;;;;;;5044688;28;20236;-52
2023/04/27 03:51:30;;;;;;;3.50;1.87;;;;;;;;;;5044167;28;20236;-52
2023/04/27 03:53:57;;;;;;;2.93;1.97;;;;;;;;;;5046794;28;20318;-50
2023/04/27 03:56:24;;;;;;;3.60;2.37;;;;;;;;;;5041278;28;20232;-52
2023/04/27 03:58:52;;;;;;;2.53;2.17;;;;;;;;;;5045898;28;20231;-51
2023/04/27 04:01:18;;;;;;;2.20;1.97;;;;;;;;;;5044999;28;20240;-51
2023/04/27 04:03:46;;;;;;;4.80;2.63;;;;;;;;;;5047975;28;20312;-52
2023/04/27 04:06:13;;;;;;;4.83;2.33;;;;;;;;;;5048017;28;20260;-51
2023/04/27 04:08:39;;;;;;;4.53;1.93;;;;;;;;;;5045271;28;20734;-50
2023/04/27 04:11:06;;;;;;;5.13;2.60;;;;;;;;;;5044729;28;20239;-50
2023/04/27 04:13:32;;;;;;;2.63;1.97;;;;;;;;;;5042418;28;20232;-52
2023/04/27 04:16:07;;;;;;;5.27;2.13;;;;;;;;;;5046024;28;20234;-52
2023/04/27 04:18:35;;;;;;;3.93;2.20;;;;;;;;;;5044544;28;20611;-51
2023/04/27 04:21:01;;;;;;;3.87;1.80;;;;;;;;;;5045221;28;20290;-51
2023/04/27 04:23:28;;;;;;;3.60;1.90;;;;;;;;;;5045679;28;20240;-50
2023/04/27 04:25:55;;;;;;;6.03;2.27;;;;;;;;;;5043824;28;20227;-53
2023/04/27 04:28:21;;;;;;;3.33;1.70;;;;;;;;;;5043983;28;20297;-52
2023/04/27 04:30:48;;;;;;;2.70;2.20;;;;;;;;;;5044893;28;20239;-50
2023/04/27 04:33:16;;;;;;;2.47;2.07;;;;;;;;;;5044476;28;20315;-51
2023/04/27 04:35:43;;;;;;;5.07;2.17;;;;;;;;;;5044453;28;20228;-53
2023/04/27 04:38:10;;;;;;;3.10;1.70;;;;;;;;;;5041922;28;20242;-50
2023/04/27 04:40:38;;;;;;;4.50;2.30;;;;;;;;;;5047021;28;20259;-51
2023/04/27 04:43:05;;;;;;;5.80;2.63;;;;;;;;;;5043630;28;20255;-52
2023/04/27 04:45:31;;;;;;;6.83;1.97;;;;;;;;;;5045903;28;20289;-51
2023/04/27 04:47:59;;;;;;;3.33;2.03;;;;;;;;;;5044698;28;20242;-55
2023/04/27 04:50:27;;;;;;;4.23;2.07;;;;;;;;;;5046217;28;20265;-53
2023/04/27 04:52:54;;;;;;;3.20;2.43;;;;;;;;;;5044892;28;20231;-51
2023/04/27 04:55:21;;;;;;;5.77;2.17;;;;;;;;;;5044659;28;20978;-50
2023/04/27 04:57:48;;;;;;;4.63;2.50;;;;;;;;;;5043224;28;20945;-54
2023/04/27 05:00:14;;;;;;;4.77;2.90;;;;;;;;;;5041013;28;20239;-51
2023/04/27 05:02:41;;;;;;;8.73;2.40;;;;;;;;;;5044015;28;20965;-52
2023/04/27 05:05:08;;;;;;;5.80;2.50;;;;;;;;;;5044124;28;20260;-52
2023/04/27 05:07:36;;;;;;;4.30;2.57;;;;;;;;;;5045387;28;20230;-52
2023/04/27 05:10:03;;;;;;;6.33;2.97;;;;;;;;;;5049103;28;20290;-51
2023/04/27 05:12:31;;;;;;;4.60;2.80;;;;;;;;;;5043829;28;20706;-51
2023/04/27 05:14:58;;;;;;;5.50;2.40;;;;;;;;;;5044959;28;20319;-51
2023/04/27 05:17:25;;;;;;;3.93;2.43;;;;;;;;;;5043464;28;20243;-52
2023/04/27 05:19:51;;;;;;;6.07;2.43;;;;;;;;;;5044850;28;20232;-52
2023/04/27 05:22:18;;;;;;;5.67;3.03;;;;;;;;;;5044526;28;20348;-51
2023/04/27 05:24:46;;;;;;;5.47;2.40;;;;;;;;;;5044471;28;20338;-53
2023/04/27 05:27:13;;;;;;;8.17;2.33;;;;;;;;;;5039675;28;20236;-51
2023/04/27 05:29:40;;;;;;;6.13;2.47;;;;;;;;;;5044319;28;20235;-51
2023/04/27 05:32:08;;;;;;;3.40;2.47;;;;;;;;;;5044780;28;20734;-53
2023/04/27 05:34:35;;;;;;;2.97;2.50;;;;;;;;;;5044379;28;20342;-51
2023/04/27 05:37:01;;;;;;;8.43;2.63;;;;;;;;;;5043354;28;20260;-52
2023/04/27 05:39:28;;;;;;;6.27;2.30;;;;;;;;;;5043059;28;20232;-53
2023/04/27 05:41:56;;;;;;;2.53;1.83;;;;;;;;;;5045996;28;20239;-51
2023/04/27 05:44:27;;;;;;;3.67;2.30;;;;;;;;;;5045185;28;20246;-50
2023/04/27 05:46:53;;;;;;;2.80;2.30;;;;;;;;;;5043106;28;20478;-53
2023/04/27 05:49:20;;;;;;;4.43;2.50;;;;;;;;;;5043991;28;20310;-52
2023/04/27 05:51:47;;;;;;;3.00;2.03;;;;;;;;;;5044300;28;20266;-52
2023/04/27 05:54:13;;;;;;;3.40;2.70;;;;;;;;;;5047980;28;20242;-54
2023/04/27 05:56:40;;;;;;;5.40;2.77;;;;;;;;;;5049301;28;20232;-54
2023/04/27 05:59:08;;;;;;;4.23;2.20;;;;;;;;;;5045694;28;20247;-52
2023/04/27 06:01:35;;;;;;;8.90;2.53;;;;;;;;;;5045113;28;20302;-52
2023/04/27 06:04:02;;;;;;;4.00;2.70;;;;;;;;;;5048482;28;20797;-50
2023/04/27 06:06:31;;;;;;;6.97;2.73;;;;;;;;;;5046312;28;20255;-54
2023/04/27 06:08:58;;;;;;;9.53;2.87;;;;;;;;;;5048061;28;20243;-53
2023/04/27 06:11:25;;;;;;;5.97;2.40;;;;;;;;;;5038971;28;20236;-51
2023/04/27 06:13:51;;;;;;;2.40;1.90;;;;;;;;;;5050352;28;20289;-50
2023/04/27 06:16:20;;;;;;;4.27;2.20;;;;;;;;;;5048575;28;20255;-55
2023/04/27 06:18:46;;;;;;;4.10;2.30;;;;;;;;;;5047955;28;20232;-54
2023/04/27 06:21:13;;;;;;;3.80;2.47;;;;;;;;;;5044736;28;20654;-52
2023/04/27 06:23:40;;;;;;;3.10;2.13;;;;;;;;;;5045880;28;20300;-51
2023/04/27 06:26:06;;;;;;;1.93;1.53;;;;;;;;;;5052100;28;20235;-50
2023/04/27 06:28:33;;;;;;;3.27;1.83;;;;;;;;;;5047609;28;20228;-50
2023/04/27 06:30:59;;;;;;;3.23;2.00;;;;;;;;;;5047030;28;20232;-51
2023/04/27 06:33:27;;;;;;;2.53;2.23;;;;;;;;;;5046880;28;20248;-51
2023/04/27 06:35:54;;;;;;;9.33;2.90;;;;;;;;;;5043633;28;20223;-51
2023/04/27 06:38:21;;;;;;;9.67;3.67;;;;;;;;;;5046473;28;20238;-51
2023/04/27 06:40:50;;;;;;;5.77;2.30;;;;;;;;;;5042565;28;20683;-52
2023/04/27 06:43:16;;;;;;;6.90;2.53;;;;;;;;;;5042743;28;20225;-51
2023/04/27 06:45:43;;;;;;;10.47;2.87;;;;;;;;;;5040604;28;20274;-51
2023/04/27 06:48:10;;;;;;;9.90;2.23;;;;;;;;;;5037602;28;20709;-51
2023/04/27 06:50:38;;;;;;;13.90;3.17;;;;;;;;;;5041821;28;20460;-52
2023/04/27 06:53:04;;;;;;;9.13;2.90;;;;;;;;;;5037872;28;20239;-51
2023/04/27 06:55:31;;;;;;;5.40;2.10;;;;;;;;;;5040942;28;20227;-51
2023/04/27 06:57:58;;;;;;;4.07;2.23;;;;;;;;;;5038430;28;20239;-51
2023/04/27 07:00:25;;;;;;;5.07;2.63;;;;;;;;;;5042130;28;20231;-52
2023/04/27 07:02:52;;;;;;;3.50;2.40;;;;;;;;;;5043965;28;20228;-51
2023/04/27 07:05:19;;;;;;;5.70;2.40;;;;;;;;;;5043697;28;25760;-51
2023/04/27 07:07:47;;;;;;;6.73;3.73;;;;;;;;;;5043287;28;20314;-51
2023/04/27 07:10:13;;;;;;;4.90;2.17;;;;;;;;;;5042877;28;20277;-51
2023/04/27 07:12:40;;;;;;;5.37;3.07;;;;;;;;;;5045262;28;20263;-51
2023/04/27 07:15:08;;;;;;;3.03;2.47;;;;;;;;;;5043274;28;20231;-51
2023/04/27 07:17:34;;;;;;;3.03;2.33;;;;;;;;;;5024992;28;20331;-51
2023/04/27 07:20:02;;;;;;;4.63;2.73;;;;;;;;;;5039803;28;20321;-51
2023/04/27 07:22:29;;;;;;;4.63;2.17;;;;;;;;;;5035692;28;20232;-53
2023/04/27 07:24:57;;;;;;;1.73;1.63;;;;;;;;;;5043985;28;20735;-51
2023/04/27 07:27:25;;;;;;;2.73;2.30;;;;;;;;;;5045034;28;20797;-51
2023/04/27 07:29:52;;;;;;;6.07;2.10;;;;;;;;;;5042569;28;20278;-50
2023/04/27 07:32:18;;;;;;;5.00;2.07;;;;;;;;;;5043266;28;20255;-52
2023/04/27 07:34:45;;;;;;;3.10;1.90;;;;;;;;;;5044836;28;20238;-52
2023/04/27 07:37:12;;;;;;;2.27;1.67;;;;;;;;;;5045048;28;20227;-52
2023/04/27 07:39:38;;;;;;;2.90;2.30;;;;;;;;;;5047256;28;20764;-51
2023/04/27 07:42:07;;;;;;;4.47;2.10;;;;;;;;;;5043207;28;20421;-51
2023/04/27 07:44:34;;;;;;;7.43;2.47;;;;;;;;;;5040966;28;20223;-51
2023/04/27 07:47:03;;;;;;;3.67;2.17;;;;;;;;;;5042301;28;20236;-52
2023/04/27 07:49:30;;;;;;;6.00;2.13;;;;;;;;;;5038959;28;20270;-52
2023/04/27 07:51:57;;;;;;;3.13;2.40;;;;;;;;;;5042355;28;20240;-51
2023/04/27 07:54:25;;;;;;;5.47;2.20;;;;;;;;;;5041714;28;20227;-51
2023/04/27 07:56:52;;;;;;;7.83;2.57;;;;;;;;;;5043658;28;20228;-52
2023/04/27 07:59:20;;;;;;;2.43;2.13;;;;;;;;;;5039207;28;20224;-52
2023/04/27 08:01:47;;;;;;;4.80;1.87;;;;;;;;;;5039791;28;20236;-49
2023/04/27 08:04:14;;;;;;;2.23;1.80;;;;;;;;;;5044290;28;20784;-52
2023/04/27 08:06:41;;;;;;;6.97;2.23;;;;;;;;;;5042464;28;20238;-51
2023/04/27 08:09:08;;;;;;;2.50;1.90;;;;;;;;;;5044252;28;20246;-52
2023/04/27 08:11:34;;;;;;;4.33;2.20;;;;;;;;;;5042555;28;20248;-51
2023/04/27 08:14:01;;;;;;;14.93;3.20;;;;;;;;;;5040928;28;20240;-51
2023/04/27 08:16:30;;;;;;;6.37;2.40;;;;;;;;;;5040717;28;20259;-51
2023/04/27 08:18:56;;;;;;;3.43;2.20;;;;;;;;;;5042523;28;20465;-49
2023/04/27 08:21:23;;;;;;;7.20;2.47;;;;;;;;;;5043676;28;20305;-51
2023/04/27 08:23:50;;;;;;;12.47;3.57;;;;;;;;;;5040739;28;20293;-50
2023/04/27 08:26:17;;;;;;;6.10;2.57;;;;;;;;;;5043500;28;20224;-52
2023/04/27 08:28:43;;;;;;;3.10;2.23;;;;;;;;;;5033609;28;20578;-51
2023/04/27 08:31:10;;;;;;;6.27;2.80;;;;;;;;;;5062192;28;20234;-52
2023/04/27 08:33:38;;;;;;;5.53;2.73;;;;;;;;;;5044148;28;20323;-52
2023/04/27 08:36:05;;;;;;;3.37;2.70;;;;;;;;;;5036381;28;20236;-52
2023/04/27 08:38:33;;;;;;;12.60;4.63;;;;;;;;;;5040997;28;20231;-50
2023/04/27 08:41:00;;;;;;;4.13;2.47;;;;;;;;;;5039559;28;20236;-53
2023/04/27 08:43:26;;;;;;;5.43;3.00;;;;;;;;;;5043421;28;20228;-52
2023/04/27 08:45:53;;;;;;;8.90;3.27;;;;;;;;;;5041114;28;20232;-52
2023/04/27 08:48:20;;;;;;;4.60;2.47;;;;;;;;;;5039653;28;20289;-52
2023/04/27 08:50:50;;;;;;;6.13;2.77;;;;;;;;;;5044375;28;20246;-51
2023/04/27 08:53:17;;;;;;;6.00;2.10;;;;;;;;;;5043291;28;20259;-51
2023/04/27 08:55:43;;;;;;;6.83;2.00;;;;;;;;;;5041256;28;20246;-53
2023/04/27 08:58:09;;;;;;;5.33;4.37;;;;;;;;;;5040283;28;20243;-51
2023/04/27 09:00:38;;;;;;;3.00;2.60;;;;;;;;;;5045759;28;20335;-51
2023/04/27 09:03:05;;;;;;;2.83;1.50;;;;;;;;;;5040844;28;20231;-51
2023/04/27 09:05:31;;;;;;;2.37;1.80;;;;;;;;;;5043834;28;20690;-52
2023/04/27 09:08:01;;;;;;;2.10;1.93;;;;;;;;;;5044371;28;20328;-50
2023/04/27 09:10:28;;;;;;;2.90;2.20;;;;;;;;;;5044240;28;20236;-51
2023/04/27 09:12:55;;;;;;;3.17;1.80;;;;;;;;;;5044422;28;20257;-51
2023/04/27 09:15:21;;;;;;;6.00;2.70;;;;;;;;;;5043511;28;20325;-51
2023/04/27 09:17:52;;;;;;;6.83;2.43;;;;;;;;;;5044586;28;20343;-50
2023/04/27 09:20:19;;;;;;;3.30;2.07;;;;;;;;;;5037394;28;20235;-53
2023/04/27 09:22:46;;;;;;;3.23;1.97;;;;;;;;;;5044478;28;20660;-52
2023/04/27 09:25:23;;;;;;;4.33;2.17;;;;;;;;;;5044887;28;20702;-51
2023/04/27 09:27:49;;;;;;;3.70;2.93;;;;;;;;;;5040001;28;20689;-51
2023/04/27 09:30:16;;;;;;;4.73;2.20;;;;;;;;;;5044268;28;20418;-50
2023/04/27 09:32:48;;;;;;;4.70;2.70;;;;;;;;;;5045088;28;20259;-52
2023/04/27 09:35:20;;;;;;;2.50;2.00;;;;;;;;;;5044009;28;20238;-50
2023/04/27 09:37:46;;;;;;;2.20;1.80;;;;;;;;;;5042837;28;20259;-52
2023/04/27 09:40:13;;;;;;;3.23;1.77;;;;;;;;;;5043509;28;20255;-50
2023/04/27 09:42:41;;;;;;;2.60;1.70;;;;;;;;;;5043013;28;20327;-51
2023/04/27 09:45:09;;;;;;;3.70;1.83;;;;;;;;;;5042036;28;20232;-51
2023/04/27 09:47:36;;;;;;;5.80;2.00;;;;;;;;;;5038434;28;20243;-50
2023/04/27 09:50:03;;;;;;;2.30;2.10;;;;;;;;;;5042729;28;20282;-53
2023/04/27 09:52:29;;;;;;;2.57;1.90;;;;;;;;;;5042701;28;20702;-52
2023/04/27 09:54:57;;;;;;;3.80;1.97;;;;;;;;;;5040404;28;20748;-51
2023/04/27 09:57:26;;;;;;;3.07;1.80;;;;;;;;;;5042041;28;20232;-52
2023/04/27 10:00:01;;;;;;;3.27;2.30;;;;;;;;;;5045655;28;20239;-52
2023/04/27 10:02:28;;;;;;;3.97;2.27;;;;;;;;;;5044553;28;20223;-51
2023/04/27 10:05:02;;;;;;;3.17;1.60;;;;;;;;;;5045106;28;20235;-56
2023/04/27 10:07:30;;;;;;;6.63;1.70;;;;;;;;;;5047466;28;20235;-51
2023/04/27 10:10:01;;;;;;;1.70;1.60;;;;;;;;;;5045647;28;20281;-52
2023/04/27 10:12:28;;;;;;;2.00;1.60;;;;;;;;;;5044887;28;20848;-52
2023/04/27 10:14:55;;;;;;;2.17;1.60;;;;;;;;;;5041304;28;20238;-51
2023/04/27 10:17:29;;;;;;;2.87;1.80;;;;;;;;;;5043640;28;20259;-50
2023/04/27 10:19:56;;;;;;;5.03;1.67;;;;;;;;;;5043537;28;20315;-50
2023/04/27 10:22:23;;;;;;;2.23;1.63;;;;;;;;;;5043790;28;20242;-52
2023/04/27 10:24:50;;;;;;;3.27;1.60;;;;;;;;;;5046190;28;20718;-53
2023/04/27 10:27:18;;;;;;;5.27;1.67;;;;;;;;;;5043294;28;20305;-51
2023/04/27 10:29:46;;;;;;;2.60;1.60;;;;;;;;;;5038334;28;20319;-51
2023/04/27 10:32:14;;;;;;;3.83;1.60;;;;;;;;;;5044065;28;20771;-51
2023/04/27 10:34:46;;;;;;;3.50;2.60;;;;;;;;;;5044943;28;20239;-51
2023/04/27 10:37:13;;;;;;;3.77;1.73;;;;;;;;;;5040918;28;20318;-52
2023/04/27 10:39:40;;;;;;;2.83;1.50;;;;;;;;;;5045549;28;20878;-53
2023/04/27 10:42:07;;;;;;;5.10;1.80;;;;;;;;;;5044861;28;20242;-51
2023/04/27 10:44:34;;;;;;;6.20;1.50;;;;;;;;;;5042013;28;20232;-52
2023/04/27 10:47:01;;;;;;;2.13;0.90;;;;;;;;;;5042903;28;20793;-51
2023/04/27 10:49:28;;;;;;;2.87;1.50;;;;;;;;;;5041707;28;20232;-50
2023/04/27 10:51:57;;;;;;;4.18;1.30;;;;;;;;;;5045990;28;20665;-52
2023/04/27 10:54:25;;;;;;;4.07;2.03;;;;;;;;;;5044932;28;20315;-51
2023/04/27 10:56:51;;;;;;;3.72;1.25;;;;;;;;;;5046865;28;20232;-52
2023/04/27 10:59:18;;;;;;;1.90;1.30;;;;;;;;;;5047063;28;20312;-51
2023/04/27 11:01:48;;;;;;;1.73;1.57;;;;;;;;;;5044131;28;20239;-51
2023/04/27 11:04:15;;;;;;;6.70;1.95;;;;;;;;;;5045822;28;20232;-52
2023/04/27 11:06:42;;;;;;;1.92;1.25;;;;;;;;;;5045488;28;20294;-52
2023/04/27 11:09:10;;;;;;;2.30;1.17;;;;;;;;;;5044966;28;20311;-51
2023/04/27 11:11:36;;;;;;;4.72;1.70;;;;;;;;;;5045603;28;20948;-51
2023/04/27 11:14:03;;;;;;;2.43;1.90;;;;;;;;;;5045516;28;20228;-51
2023/04/27 11:16:29;;;;;;;3.40;1.67;;;;;;;;;;5045867;28;20787;-50
2023/04/27 11:18:55;;;;;;;2.90;1.50;;;;;;;;;;5042971;28;20232;-49
2023/04/27 11:21:22;;;;;;;3.10;1.27;;;;;;;;;;5048130;28;20247;-52
2023/04/27 11:23:48;;;;;;;5.90;1.60;;;;;;;;;;5045792;28;20718;-52
2023/04/27 11:26:17;;;;;;;1.60;1.50;;;;;;;;;;5043815;28;20232;-52
2023/04/27 11:28:44;;;;;;;1.50;1.30;;;;;;;;;;5044532;28;20749;-52
2023/04/27 11:31:11;;;;;;;4.00;1.40;;;;;;;;;;5044784;28;20236;-51
2023/04/27 11:33:38;;;;;;;3.07;1.40;;;;;;;;;;5043832;28;20236;-51
2023/04/27 11:36:15;;;;;;;2.10;1.90;;;;;;;;;;5045965;28;20591;-51
2023/04/27 11:38:42;;;;;;;6.28;2.13;;;;;;;;;;5046709;28;20231;-51
2023/04/27 11:41:08;;;;;;;2.40;1.80;;;;;;;;;;5047448;28;20321;-51
2023/04/27 11:43:37;;;;;;;4.25;2.13;;;;;;;;;;5046598;28;20658;-53
2023/04/27 11:46:04;;;;;;;3.92;2.17;;;;;;;;;;5047009;28;20262;-52
2023/04/27 11:48:31;;;;;;;5.50;2.35;;;;;;;;;;5047258;28;20240;-50
2023/04/27 11:50:59;;;;;;;4.00;1.58;;;;;;;;;;5046167;28;20236;-52
2023/04/27 11:53:30;;;;;;;3.15;1.55;;;;;;;;;;5041445;28;20703;-52
2023/04/27 11:55:57;;;;;;;2.78;1.52;;;;;;;;;;5045449;28;20227;-51
2023/04/27 11:58:23;;;;;;;2.92;1.80;;;;;;;;;;5041419;28;20271;-53
2023/04/27 12:00:51;;;;;;;3.28;1.33;;;;;;;;;;5043013;28;20310;-52
2023/04/27 12:03:17;;;;;;;2.30;1.50;;;;;;;;;;5044192;28;20334;-52
2023/04/27 12:05:50;;;;;;;3.67;1.73;;;;;;;;;;5039444;28;20261;-51
2023/04/27 12:08:17;;;;;;;2.63;2.30;;;;;;;;;;5043549;28;20243;-50
2023/04/27 12:10:44;;;;;;;8.20;2.92;;;;;;;;;;5045768;28;20331;-51
2023/04/27 12:13:10;;;;;;;4.60;2.38;;;;;;;;;;5046520;28;20236;-52
2023/04/27 12:15:37;;;;;;;2.47;1.52;;;;;;;;;;5045426;28;20239;-51
2023/04/27 12:18:05;;;;;;;2.60;1.23;;;;;;;;;;5042149;28;20236;-52
2023/04/27 12:20:31;;;;;;;3.88;2.05;;;;;;;;;;5043790;28;20238;-50
2023/04/27 12:22:58;;;;;;;3.40;2.45;;;;;;;;;;5045443;28;20338;-50
2023/04/27 12:25:24;;;;;;;1.70;1.60;;;;;;;;;;5043808;28;20236;-51
2023/04/27 12:27:50;;;;;;;1.67;1.58;;;;;;;;;;5044096;28;20240;-51
2023/04/27 12:30:17;;;;;;;3.17;1.20;;;;;;;;;;5042164;28;20242;-53
2023/04/27 12:32:43;;;;;;;2.87;1.37;;;;;;;;;;5034900;28;20319;-52
2023/04/27 12:35:11;;;;;;;1.65;1.27;;;;;;;;;;5042807;28;20252;-55
2023/04/27 12:37:38;;;;;;;3.13;1.98;;;;;;;;;;5045492;28;20243;-51
2023/04/27 12:40:06;;;;;;;2.22;1.88;;;;;;;;;;5048664;28;20231;-53
2023/04/27 12:42:33;;;;;;;2.25;1.83;;;;;;;;;;5042472;28;20349;-51
2023/04/27 12:45:00;;;;;;;1.92;1.35;;;;;;;;;;5042790;28;20228;-50
2023/04/27 12:47:27;;;;;;;1.40;1.20;;;;;;;;;;5037055;28;20247;-51
2023/04/27 12:49:53;;;;;;;2.22;1.17;;;;;;;;;;5042550;28;20244;-52
2023/04/27 12:52:21;;;;;;;1.77;1.38;;;;;;;;;;5043339;28;20223;-52
2023/04/27 12:54:48;;;;;;;3.38;1.50;;;;;;;;;;5043748;28;20596;-51
2023/04/27 12:57:14;;;;;;;2.72;2.15;;;;;;;;;;5039993;28;20224;-52
2023/04/27 12:59:40;;;;;;;2.65;1.73;;;;;;;;;;5041587;28;20225;-53
2023/04/27 13:02:07;;;;;;;1.35;1.25;;;;;;;;;;5045775;28;20749;-53
2023/04/27 13:04:33;;;;;;;2.88;0.98;;;;;;;;;;5047771;28;20236;-52
2023/04/27 13:07:00;;;;;;;4.65;1.75;;;;;;;;;;5042946;28;20232;-51
2023/04/27 13:09:28;;;;;;;3.60;0.93;;;;;;;;;;5041899;28;20244;-51
2023/04/27 13:11:54;;;;;;;2.97;1.35;;;;;;;;;;5039342;28;20255;-49
2023/04/27 13:14:21;;;;;;;1.73;1.38;;;;;;;;;;5042562;28;20282;-52
2023/04/27 13:16:48;;;;;;;3.33;1.10;;;;;;;;;;5041434;28;20327;-51
2023/04/27 13:19:14;;;;;;;2.55;1.67;;;;;;;;;;5040399;28;20710;-50
2023/04/27 13:21:41;;;;;;;2.72;1.25;;;;;;;;;;5041432;28;20235;-51
2023/04/27 13:24:07;;;;;;;1.30;1.10;;;;;;;;;;5038928;28;20290;-50
2023/04/27 13:26:35;;;;;;;1.15;0.98;;;;;;;;;;5042927;28;20314;-52
2023/04/27 13:29:03;;;;;;;1.75;1.00;;;;;;;;;;5040801;28;20243;-50
2023/04/27 13:31:31;;;;;;;3.63;1.60;;;;;;;;;;5041907;28;20239;-51
2023/04/27 13:33:57;;;;;;;1.13;0.90;;;;;;;;;;5039390;28;20373;-52
2023/04/27 13:36:24;;;;;;;3.80;1.20;;;;;;;;;;5039070;28;20235;-51
2023/04/27 13:38:50;;;;;;;2.13;1.17;;;;;;;;;;5041230;28;20334;-51
2023/04/27 13:41:17;;;;;;;2.30;1.20;;;;;;;;;;5041649;28;20718;-51
2023/04/27 13:43:44;;;;;;;4.20;1.40;;;;;;;;;;5042999;28;20251;-51
2023/04/27 13:46:12;;;;;;;5.53;1.23;;;;;;;;;;5044087;28;20675;-52
2023/04/27 13:48:38;;;;;;;3.67;1.20;;;;;;;;;;5042024;28;20331;-50
2023/04/27 13:51:05;;;;;;;3.22;1.40;;;;;;;;;;5040389;28;20315;-51
2023/04/27 13:53:31;;;;;;;2.50;1.00;;;;;;;;;;5039875;28;20355;-51
2023/04/27 13:55:58;;;;;;;1.67;1.25;;;;;;;;;;5042542;28;20237;-51
2023/04/27 13:58:25;;;;;;;3.78;1.48;;;;;;;;;;5041019;28;20228;-52
2023/04/27 14:00:53;;;;;;;2.97;2.50;;;;;;;;;;5035525;28;20261;-52
2023/04/27 14:03:20;;;;;;;5.35;1.40;;;;;;;;;;5042128;28;20236;-52
2023/04/27 14:05:47;;;;;;;1.02;0.98;;;;;;;;;;5037832;28;20240;-51
2023/04/27 14:08:14;;;;;;;1.50;0.90;;;;;;;;;;5033510;28;20228;-51
2023/04/27 14:10:40;;;;;;;1.10;0.88;;;;;;;;;;5043392;28;20247;-52
2023/04/27 14:13:06;;;;;;;2.60;1.27;;;;;;;;;;5041428;28;20240;-52
2023/04/27 14:15:35;;;;;;;1.08;0.98;;;;;;;;;;5043597;28;20637;-54
2023/04/27 14:18:04;;;;;;;1.60;1.40;;;;;;;;;;5040844;28;20610;-51
2023/04/27 14:20:31;;;;;;;1.42;1.13;;;;;;;;;;5046326;28;20258;-52
2023/04/27 14:22:57;;;;;;;5.05;1.40;;;;;;;;;;5040880;28;20785;-50
2023/04/27 14:25:24;;;;;;;1.67;1.00;;;;;;;;;;5041485;28;20323;-51
2023/04/27 14:27:50;;;;;;;2.28;0.90;;;;;;;;;;5044522;28;20769;-51
2023/04/27 14:30:16;;;;;;;1.38;1.00;;;;;;;;;;5046758;28;20331;-51
2023/04/27 14:32:43;;;;;;;7.13;1.40;;;;;;;;;;5044431;28;20255;-52
2023/04/27 14:35:11;;;;;;;2.15;1.38;;;;;;;;;;5052508;28;20227;-52
2023/04/27 14:37:37;;;;;;;1.52;1.30;;;;;;;;;;5053081;28;20242;-52
2023/04/27 14:40:05;;;;;;;1.60;1.17;;;;;;;;;;5052785;28;20252;-55
2023/04/27 14:42:32;;;;;;;1.30;0.82;;;;;;;;;;5047275;28;20323;-51